Data for 12/21/2012

Time Sea-Level Adjusted Pressure Absolute Pressure Temperature Relative Humidity Dew Point   
(mb) (inHg) (mb) (inHg) (C) (F) (%) (C) (F)
00:05 1017 30.03 846 24.98 -3.8 25.2 45 -14.1 6.6
00:10 1017 30.03 846 24.98 -3.6 25.6 45 -13.9 7
00:15 1017 30.03 846 24.98 -3.5 25.7 45 -13.7 7.4
00:20 1017 30.03 846 24.98 -3.6 25.6 42 -14.6 5.7
00:25 1017 30.03 846 24.98 -3.4 25.9 42 -14.5 6
00:30 1017 30.03 846 24.98 -4 24.8 46 -13.9 7
00:35 1017 30.03 846 24.98 -4.6 23.8 50 -13.4 7.9
00:40 1017 30.03 846 24.98 -4.7 23.6 43 -15.4 4.2
00:45 1017 30.03 846 24.98 -3.6 25.5 41 -15.1 4.8
00:50 1017 30.03 846 24.98 -3.4 25.8 40 -15.4 4.4
00:55 1017 30.03 846 24.98 -3.2 26.2 39 -15.3 4.5
01:00 1017 30.03 846 24.98 -2.8 27 37 -15.6 4
01:05 1017 30.03 846 24.98 -2.2 28 36 -15.5 4.1
01:10 1016 30 846 24.98 -2.3 27.9 37 -15 5
01:15 1016 30 846 24.98 -2.9 26.8 39 -14.9 5.2
01:20 1016 30 846 24.98 -2.5 27.6 37 -15.4 4.3
01:25 1016 30 846 24.98 -2.2 28.1 35 -15.7 3.8
01:30 1016 30 846 24.98 -2.1 28.3 36 -15.3 4.5
01:35 1016 30 846 24.98 -2.5 27.5 38 -15.1 4.8
01:40 1017 30.03 846 24.98 -2.6 27.4 36 -15.7 3.7
01:45 1017 30.03 846 24.98 -2 28.3 35 -15.5 4
01:50 1016 30 846 24.98 -2.4 27.7 37 -15.2 4.6
01:55 1017 30.03 846 24.98 -2.4 27.7 40 -14.3 6.2
02:00 1017 30.03 846 24.98 -2.3 27.8 37 -15.2 4.7
02:05 1017 30.03 846 24.98 -2 28.5 40 -13.9 6.9
02:10 1017 30.03 846 24.98 -2.8 27 43 -13.8 7.2
02:15 1017 30.03 846 24.98 -3.4 25.9 45 -13.7 7.4
02:20 1017 30.03 846 24.98 -3.7 25.3 44 -14.3 6.3
02:25 1017 30.03 846 24.98 -3.9 25.1 46 -13.7 7.3
02:30 1017 30.03 846 24.98 -4 24.8 44 -14.5 6
02:35 1017 30.03 846 24.98 -3.6 25.5 43 -14.4 6.1
02:40 1017 30.03 846 24.98 -4.5 23.9 48 -14 6.9
02:45 1016 30 846 24.98 -4.3 24.2 43 -15.2 4.7
02:50 1016 30 846 24.98 -3.8 25.1 42 -15 4.9
02:55 1016 30 846 24.98 -3.4 25.9 38 -15.7 3.8
03:00 1016 30 846 24.98 -2.4 27.8 37 -15.3 4.5
03:05 1016 30 846 24.98 -2.3 27.8 38 -14.7 5.5
03:10 1016 30 845 24.95 -2.5 27.5 38 -15.1 4.9
03:15 1016 30 845 24.95 -2.3 27.8 37 -15.1 4.8
03:20 1016 30 845 24.95 -2.2 28 36 -15.4 4.3
03:25 1016 30 845 24.95 -1.6 29.1 33 -15.8 3.6
03:30 1016 30 845 24.95 -1.3 29.6 33 -15.5 4.1
03:35 1016 30 845 24.95 -1.3 29.7 33 -15.8 3.6
03:40 1016 30 845 24.95 -1.2 29.9 33 -15.5 4.1
03:45 1016 30 845 24.95 -1.3 29.7 34 -15.4 4.3
03:50 1016 30 845 24.95 -1.2 29.9 32 -15.9 3.4
03:55 1016 30 845 24.95 -0.9 30.4 33 -15.3 4.4
04:00 1016 30 845 24.95 -0.7 30.8 32 -15.5 4.2
04:05 1016 30 845 24.95 -0.6 30.9 32 -15.5 4.2
04:10 1016 30 845 24.95 -0.6 30.8 31 -15.7 3.7
04:15 1016 30 845 24.95 -0.6 30.9 31 -15.6 3.9
04:20 1016 30 845 24.95 -0.6 31 31 -15.6 3.9
04:25 1016 30 845 24.95 -0.4 31.3 31 -15.7 3.7
04:30 1016 30 845 24.95 -0.3 31.5 31 -15.5 4.1
04:35 1016 30 845 24.95 -0.3 31.5 30 -15.7 3.7
04:40 1016 30 845 24.95 -0.2 31.6 31 -15.4 4.3
04:45 1016 30 845 24.95 -0.3 31.5 31 -15.4 4.3
04:50 1016 30 845 24.95 -0.4 31.3 33 -14.9 5.2
04:55 1016 30 845 24.95 -0.7 30.7 33 -15.2 4.6
05:00 1016 30 845 24.95 -0.7 30.8 33 -15.1 4.9
05:05 1016 30 845 24.95 -0.7 30.7 32 -15.4 4.3
05:10 1016 30 845 24.95 -0.7 30.7 35 -14.5 5.9
05:15 1016 30 845 24.95 -1.1 29.9 35 -14.8 5.4
05:20 1016 30 845 24.95 -1.3 29.7 36 -14.5 5.9
05:25 1016 30 845 24.95 -1.6 29.2 37 -14.5 6
05:30 1016 30 845 24.95 -1.8 28.8 37 -14.5 5.9
05:35 1016 30 845 24.95 -1.7 28.9 37 -14.7 5.5
05:40 1016 30 845 24.95 -1.5 29.2 37 -14.4 6
05:45 1016 30 845 24.95 -1.6 29.2 37 -14.5 5.9
05:50 1016 30 845 24.95 -1.3 29.6 36 -14.7 5.5
05:55 1016 30 845 24.95 -0.7 30.8 34 -14.7 5.5
06:00 1016 30 845 24.95 -1 30.1 36 -14.4 6
06:05 1016 30 845 24.95 -1.2 29.8 36 -14.5 5.9
06:10 1016 30 845 24.95 -1.2 29.9 35 -14.9 5.1
06:15 1016 30 845 24.95 -1.1 30 34 -15 5.1
06:20 1016 30 845 24.95 -0.9 30.5 33 -15.1 4.8
06:25 1016 30 845 24.95 -0.6 30.9 33 -14.9 5.2
06:30 1016 30 845 24.95 -0.6 30.9 33 -15.1 4.8
06:35 1016 30 845 24.95 -0.4 31.3 33 -14.8 5.3
06:40 1016 30 845 24.95 -0.3 31.5 32 -14.9 5.1
06:45 1016 30 845 24.95 -0.4 31.3 33 -14.7 5.6
06:50 1016 30 845 24.95 -0.5 31 35 -14.4 6.1
06:55 1016 30 845 24.95 -0.8 30.6 34 -15 5.1
07:00 1016 30 845 24.95 -0.6 30.9 34 -14.7 5.5
07:05 1016 30 845 24.95 -0.5 31.1 34 -14.7 5.5
07:10 1016 30 845 24.95 -0.6 30.8 34 -14.6 5.8
07:15 1016 30 845 24.95 -1 30.3 39 -13.4 7.9
07:20 1016 30 845 24.95 -1.6 29.1 38 -14.3 6.3
07:25 1016 30 845 24.95 -1.4 29.5 38 -13.8 7.1
07:30 1016 30 845 24.95 -1.6 29.1 38 -14.1 6.7
07:35 1016 30 845 24.95 -1.3 29.6 37 -14.3 6.3
07:40 1016 30 845 24.95 -1.2 29.8 38 -13.8 7.2
07:45 1016 30 845 24.95 -1.3 29.7 37 -14.3 6.2
07:50 1016 30 845 24.95 -1.5 29.3 39 -13.7 7.4
07:55 1016 30 845 24.95 -1.7 29 41 -13.4 7.9
08:00 1016 30 845 24.95 -1.8 28.7 40 -13.8 7.2
08:05 1016 30 845 24.95 -1.9 28.6 41 -13.5 7.6
08:10 1016 30 845 24.95 -2 28.4 41 -13.5 7.6
08:15 1016 30 845 24.95 -2.1 28.2 42 -13.4 7.9
08:20 1016 30 845 24.95 -2 28.4 41 -13.6 7.4
08:25 1016 30 845 24.95 -2 28.4 42 -13.3 8
08:30 1016 30 845 24.95 -2 28.4 41 -13.5 7.6
08:35 1016 30 845 24.95 -2 28.3 40 -14 6.8
08:40 1016 30 845 24.95 -1.5 29.3 38 -14 6.7
08:45 1016 30 845 24.95 -1.5 29.3 40 -13.5 7.7
08:50 1016 30 845 24.95 -1.7 28.9 39 -13.9 7.1
08:55 1016 30 845 24.95 -1.4 29.5 38 -13.9 7
09:00 1016 30 845 24.95 -1.3 29.7 39 -13.6 7.5
09:05 1016 30 845 24.95 -1.6 29.1 41 -13.3 8
09:10 1016 30 845 24.95 -1.9 28.6 42 -13.2 8.2
09:15 1016 30 845 24.95 -1.8 28.8 40 -13.7 7.3
09:20 1016 30 845 24.95 -1.2 29.8 37 -14 6.7
09:25 1016 30 845 24.95 -1.2 29.9 39 -13.5 7.7
09:30 1016 30 845 24.95 -1 30.1 37 -13.9 7
09:35 1016 30 845 24.95 -0.6 30.9 37 -13.6 7.4
09:40 1016 30 845 24.95 -0.8 30.5 38 -13.4 7.8
09:45 1016 30 845 24.95 -1.1 30 38 -13.6 7.5
09:50 1016 30 845 24.95 -1.1 30.1 39 -13.4 7.9
09:55 1016 30 845 24.95 -0.9 30.5 39 -13.2 8.3
10:00 1016 30 845 24.95 -1.1 30 40 -13.2 8.2
10:05 1016 30 845 24.95 -1.3 29.7 40 -13.3 8.1
10:10 1016 30 845 24.95 -1.1 30 40 -12.9 8.7
10:15 1016 30 845 24.95 -1.2 29.8 41 -13 8.7
10:20 1016 30 845 24.95 -1.2 29.8 41 -12.8 9
10:25 1016 30 845 24.95 -1 30.3 40 -12.9 8.9
10:30 1016 30 845 24.95 -0.9 30.4 38 -13.5 7.7
10:35 1016 30 845 24.95 -0.6 30.9 39 -13 8.7
10:40 1016 30 845 24.95 -0.4 31.3 38 -13.2 8.2
10:45 1016 30 845 24.95 -0.4 31.3 36 -13.8 7.1
10:50 1016 30 845 24.95 0.1 32.2 34 -14 6.9
10:55 1016 30 845 24.95 1.2 34.1 32 -13.6 7.5
11:00 1016 30 845 24.95 1.7 35.1 33 -12.8 9
11:05 1016 30 845 24.95 2.2 35.9 33 -12.6 9.3
11:10 1016 30 845 24.95 1.7 35 37 -11.7 11
11:15 1016 30 845 24.95 1.6 34.8 36 -11.9 10.5
11:20 1016 30 845 24.95 1.8 35.2 34 -12.5 9.6
11:25 1016 30 845 24.95 2.1 35.7 33 -12.5 9.4
11:30 1016 30 845 24.95 2.4 36.4 32 -12.7 9.2
11:35 1016 30 845 24.95 2.2 35.9 34 -12.2 10
11:40 1016 30 845 24.95 2 35.5 34 -12.2 10
11:45 1016 30 845 24.95 1.9 35.4 35 -12.2 10
11:50 1016 30 845 24.95 1.9 35.4 36 -11.7 10.9
11:55 1016 30 845 24.95 2 35.6 36 -11.7 11
12:00 1016 30 845 24.95 2 35.7 37 -11.2 11.8
12:05 1016 30 845 24.95 1.3 34.4 41 -10.7 12.8
12:10 1016 30 845 24.95 1.4 34.5 38 -11.4 11.5
12:15 1016 30 845 24.95 1.5 34.7 38 -11.3 11.6
12:20 1016 30 845 24.95 1.4 34.6 38 -11.3 11.7
12:25 1016 30 845 24.95 0.9 33.6 39 -11.5 11.4
12:30 1016 30 845 24.95 1 33.8 39 -11.4 11.5
12:35 1016 30 845 24.95 1.3 34.3 38 -11.6 11.1
12:40 1016 30 845 24.95 1.6 34.9 36 -11.9 10.6
12:45 1016 30 845 24.95 0.9 33.6 38 -11.8 10.8
12:50 1016 30 845 24.95 0.9 33.6 38 -11.9 10.5
12:55 1016 30 845 24.95 1.3 34.4 36 -12.2 10.1
13:00 1016 30 845 24.95 1.8 35.2 33 -12.7 9.1
13:05 1016 30 845 24.95 2 35.6 34 -12.2 10.1
13:10 1016 30 845 24.95 2 35.6 35 -12 10.3
13:15 1016 30 845 24.95 1.6 35 36 -11.9 10.5
13:20 1015 29.97 845 24.95 1.5 34.7 36 -12 10.3
13:25 1015 29.97 845 24.95 1.7 35.1 37 -11.4 11.5
13:30 1015 29.97 845 24.95 1.8 35.2 36 -11.9 10.6
13:35 1015 29.97 845 24.95 2.1 35.9 37 -11.2 11.8
13:40 1015 29.97 845 24.95 2 35.5 35 -11.9 10.5
13:45 1015 29.97 844 24.92 1 33.7 39 -11.6 11.1
13:50 1015 29.97 844 24.92 0.8 33.4 41 -11.1 12
13:55 1015 29.97 844 24.92 0.4 32.7 43 -10.6 12.8
14:00 1015 29.97 844 24.92 -0.1 31.8 44 -10.9 12.3
14:05 1015 29.97 844 24.92 -0.5 31.1 43 -11.5 11.2
14:10 1015 29.97 844 24.92 -0.9 30.4 44 -11.6 11.2
14:15 1015 29.97 844 24.92 -0.4 31.3 42 -11.7 11
14:20 1015 29.97 844 24.92 0.1 32.2 40 -11.8 10.7
14:25 1015 29.97 844 24.92 0.4 32.8 41 -11.5 11.3
14:30 1015 29.97 844 24.92 0.7 33.3 34 -13.3 8.1
14:35 1015 29.97 844 24.92 0.8 33.5 36 -12.6 9.4
14:40 1015 29.97 844 24.92 0.7 33.3 36 -12.8 8.9
14:45 1015 29.97 844 24.92 0.8 33.5 36 -12.6 9.3
14:50 1015 29.97 844 24.92 1.4 34.5 34 -12.9 8.9
14:55 1015 29.97 844 24.92 1.8 35.2 33 -12.7 9.1
15:00 1015 29.97 844 24.92 2.2 36 32 -12.9 8.8
15:05 1015 29.97 844 24.92 2 35.5 34 -12.5 9.5
15:10 1015 29.97 844 24.92 2.1 35.8 33 -12.7 9.1
15:15 1015 29.97 844 24.92 2.5 36.5 33 -12.1 10.3
15:20 1015 29.97 844 24.92 2.4 36.3 33 -12.3 9.8
15:25 1015 29.97 844 24.92 2.3 36.2 33 -12.5 9.6
15:30 1015 29.97 844 24.92 2.4 36.4 32 -12.7 9.2
15:35 1015 29.97 844 24.92 2.2 35.9 33 -12.5 9.5
15:40 1015 29.97 844 24.92 1.7 35.1 33 -12.8 8.9
15:45 1015 29.97 844 24.92 1.8 35.2 33 -13 8.6
15:50 1015 29.97 844 24.92 1.8 35.3 34 -12.4 9.6
15:55 1015 29.97 844 24.92 1.4 34.5 35 -12.6 9.4
16:00 1015 29.97 844 24.92 1.4 34.6 34 -12.7 9.1
16:05 1015 29.97 844 24.92 1.6 34.8 35 -12.4 9.7
16:10 1015 29.97 844 24.92 1.6 34.8 35 -12.2 10
16:15 1015 29.97 844 24.92 1.3 34.3 33 -13.3 8
16:20 1015 29.97 844 24.92 1.2 34.2 35 -12.8 9
16:25 1015 29.97 844 24.92 1.3 34.3 36 -12.3 9.9
16:30 1015 29.97 844 24.92 1.3 34.4 34 -12.9 8.7
16:35 1015 29.97 844 24.92 1.2 34.2 35 -12.6 9.2
16:40 1015 29.97 844 24.92 1.3 34.3 34 -12.8 8.9
16:45 1015 29.97 844 24.92 1.1 33.9 35 -12.7 9.1
16:50 1015 29.97 844 24.92 0.9 33.6 37 -12.2 10.1
16:55 1015 29.97 844 24.92 1 33.7 37 -12.2 10
17:00 1015 29.97 844 24.92 0.9 33.7 37 -12.1 10.1
17:05 1015 29.97 844 24.92 0.9 33.6 39 -11.5 11.3
17:10 1015 29.97 844 24.92 0.7 33.3 40 -11.3 11.6
17:15 1015 29.97 844 24.92 0.7 33.2 41 -11.3 11.7
17:20 1015 29.97 844 24.92 0.6 33 43 -10.6 12.8
17:25 1015 29.97 844 24.92 0.4 32.7 42 -11 12.2
17:30 1015 29.97 844 24.92 0.4 32.7 44 -10.5 13
17:35 1015 29.97 844 24.92 0.1 32.2 44 -10.8 12.6
17:40 1015 29.97 844 24.92 -0.2 31.7 46 -10.4 13.3
17:45 1015 29.97 844 24.92 -0.5 31.1 45 -10.9 12.4
17:50 1015 29.97 844 24.92 -0.4 31.2 43 -11.6 11.1
17:55 1015 29.97 844 24.92 -0.5 31.1 36 -13.7 7.3
18:00 1015 29.97 844 24.92 -0.4 31.3 43 -11.5 11.4
18:05 1015 29.97 844 24.92 -0.6 30.9 47 -10.7 12.8
18:10 1015 29.97 844 24.92 -1 30.2 47 -10.9 12.4
18:15 1015 29.97 844 24.92 -1.2 29.9 48 -10.7 12.7
18:20 1015 29.97 844 24.92 -1.3 29.6 45 -11.8 10.7
18:25 1015 29.97 844 24.92 -1.3 29.7 42 -12.6 9.3
18:30 1015 29.97 844 24.92 -0.9 30.3 43 -11.9 10.5
18:35 1015 29.97 844 24.92 -0.8 30.6 48 -10.4 13.2
18:40 1015 29.97 844 24.92 -0.8 30.5 46 -11.1 12
18:45 1015 29.97 844 24.92 -0.9 30.4 46 -11 12.1
18:50 1015 29.97 844 24.92 -1.1 30 50 -10.3 13.5
18:55 1015 29.97 844 24.92 -1 30.2 51 -9.9 14.2
19:00 1015 29.97 844 24.92 -1.4 29.4 48 -11 12.1
19:05 1014 29.94 844 24.92 -1.9 28.6 46 -12.1 10.2
19:10 1014 29.94 844 24.92 -1.9 28.6 48 -11.6 11.1
19:15 1014 29.94 844 24.92 -1.8 28.7 49 -11.2 11.8
19:20 1014 29.94 844 24.92 -1.6 29.1 44 -12.3 9.9
19:25 1014 29.94 844 24.92 -0.4 31.2 41 -12.1 10.3
19:30 1015 29.97 844 24.92 -0.2 31.6 40 -12.3 9.9
19:35 1015 29.97 844 24.92 -0 32 40 -12.1 10.3
19:40 1015 29.97 844 24.92 -0.3 31.5 40 -12.2 10
19:45 1015 29.97 844 24.92 -0.7 30.8 42 -12 10.4
19:50 1015 29.97 844 24.92 -0.8 30.5 43 -11.8 10.7
19:55 1015 29.97 844 24.92 -1 30.2 45 -11.5 11.2
20:00 1015 29.97 844 24.92 -1.3 29.7 48 -11 12.2
20:05 1015 29.97 844 24.92 -1.6 29.1 46 -11.8 10.7
20:10 1015 29.97 844 24.92 -1.5 29.3 46 -11.7 10.9
20:15 1015 29.97 844 24.92 -1.5 29.2 45 -12.1 10.3
20:20 1015 29.97 844 24.92 -1.4 29.5 44 -12.1 10.2
20:25 1015 29.97 844 24.92 -1.4 29.5 45 -11.8 10.7
20:30 1015 29.97 844 24.92 -1.6 29.1 45 -12.1 10.2
20:35 1015 29.97 844 24.92 -1.6 29.1 44 -12.3 9.9
20:40 1015 29.97 844 24.92 -1.7 28.9 46 -11.9 10.6
20:45 1015 29.97 844 24.92 -2 28.4 46 -12.1 10.3
20:50 1015 29.97 844 24.92 -2 28.4 45 -12.3 9.8
20:55 1015 29.97 844 24.92 -2 28.4 46 -12 10.3
21:00 1015 29.97 844 24.92 -2.3 27.8 47 -12.2 10.1
21:05 1015 29.97 844 24.92 -2.2 28.1 47 -12 10.3
21:10 1015 29.97 844 24.92 -2.6 27.4 47 -12.4 9.7
21:15 1014 29.94 844 24.92 -2.7 27.2 48 -12.3 9.8
21:20 1014 29.94 844 24.92 -2.8 27 48 -12.5 9.6
21:25 1014 29.94 844 24.92 -3.1 26.4 48 -12.7 9.2
21:30 1015 29.97 844 24.92 -3.3 26.1 47 -13.2 8.3
21:35 1015 29.97 844 24.92 -2.2 28 42 -13.4 7.8
21:40 1015 29.97 844 24.92 -2 28.5 43 -12.9 8.8
21:45 1015 29.97 844 24.92 -2.4 27.6 45 -12.9 8.8
21:50 1015 29.97 844 24.92 -2.3 27.9 44 -13 8.5
21:55 1015 29.97 844 24.92 -2.3 27.9 43 -13.2 8.3
22:00 1015 29.97 844 24.92 -2.2 28.1 42 -13.4 8
22:05 1015 29.97 844 24.92 -2.1 28.3 42 -13.5 7.8
22:10 1015 29.97 844 24.92 -1.9 28.6 41 -13.4 7.9
22:15 1015 29.97 844 24.92 -2.2 28 41 -13.7 7.4
22:20 1015 29.97 844 24.92 -2.4 27.8 43 -13.3 8
22:25 1015 29.97 844 24.92 -2.5 27.4 43 -13.5 7.7
22:30 1015 29.97 844 24.92 -2.6 27.4 44 -13.2 8.2
22:35 1014 29.94 844 24.92 -2.9 26.8 45 -13.4 8
22:40 1014 29.94 844 24.92 -2.8 26.9 45 -13.3 8.1
22:45 1014 29.94 844 24.92 -2.7 27.2 44 -13.4 8
22:50 1014 29.94 844 24.92 -2.6 27.4 44 -13.2 8.2
22:55 1014 29.94 844 24.92 -2.4 27.7 43 -13.4 7.9
23:00 1015 29.97 844 24.92 -2 28.4 41 -13.6 7.5
23:05 1015 29.97 844 24.92 -1.5 29.4 39 -13.7 7.4
23:10 1015 29.97 844 24.92 -1.1 30.1 37 -13.9 7
23:15 1015 29.97 844 24.92 -0.9 30.4 38 -13.5 7.7
23:20 1014 29.94 844 24.92 -1 30.1 38 -13.6 7.6
23:25 1014 29.94 844 24.92 -1.2 29.9 40 -13.1 8.5
23:30 1014 29.94 843 24.89 -1.4 29.5 40 -13.4 7.9
23:35 1014 29.94 843 24.89 -1.4 29.5 40 -13.4 7.8
23:40 1014 29.94 843 24.89 -1.2 29.9 39 -13.5 7.8
23:45 1014 29.94 843 24.89 -0.9 30.4 37 -13.9 7
23:50 1014 29.94 843 24.89 -0.6 30.9 36 -14 6.8
23:55 1014 29.94 843 24.89 -0.6 31 37 -13.7 7.3
24:00 1014 29.94 843 24.89 -0.6 30.9 36 -13.8 7.1